Terminal Aerodrome Forecast
Issued by NWS

Home | Current Version | Previous Version | Graphics & Text | Print | Product List | Glossary Off
Versions: 1 2 3 4 5 6 7 8 9 10 11 12 13 14 15 16 17

000
FTUS43 KDDC 220520
TAFHYS
TAF
KHYS 220520Z 2206/2306 04008KT P6SM -SN OVC045
     FM221000 07006KT P6SM VCSH OVC015
     FM221300 08006KT P6SM OVC008
     FM221800 13006KT P6SM OVC008
     FM230500 09004KT P6SM BKN008=

USA.gov is the U.S. government's official web portal to all federal, state and local government web resources and services.